createdAt,value
2023-05-19T00:00:53.436Z,0.00
2023-05-19T00:01:53.454Z,0.00
2023-05-19T00:02:53.471Z,0.00
2023-05-19T00:03:53.432Z,0.00
2023-05-19T00:04:53.397Z,0.00
2023-05-19T00:05:53.457Z,0.00
2023-05-19T00:06:53.363Z,0.00
2023-05-19T00:07:53.386Z,0.00
2023-05-19T00:08:53.321Z,0.00
2023-05-19T00:09:53.355Z,0.00
2023-05-19T00:10:53.297Z,0.00
2023-05-19T00:11:53.301Z,0.00
2023-05-19T00:12:53.910Z,0.00
2023-05-19T00:13:53.481Z,0.00
2023-05-19T00:14:53.249Z,0.00
2023-05-19T00:15:53.300Z,0.00
2023-05-19T00:16:53.260Z,0.00
2023-05-19T00:17:53.245Z,0.00
2023-05-19T00:18:53.262Z,0.00
2023-05-19T00:19:53.184Z,0.00
2023-05-19T00:20:53.154Z,0.00
2023-05-19T00:21:53.191Z,0.00
2023-05-19T00:22:53.178Z,0.00
2023-05-19T00:23:53.154Z,0.00
2023-05-19T00:24:53.108Z,0.00
2023-05-19T00:25:53.118Z,0.00
2023-05-19T00:26:53.075Z,0.00
2023-05-19T00:27:53.106Z,0.00
2023-05-19T00:28:53.051Z,0.00
2023-05-19T00:29:53.067Z,0.00
2023-05-19T00:30:53.043Z,0.00
2023-05-19T00:31:53.129Z,0.00
2023-05-19T00:32:53.073Z,0.00
2023-05-19T00:33:53.015Z,0.00
2023-05-19T00:34:52.977Z,0.00
2023-05-19T00:35:53.055Z,0.00
2023-05-19T00:36:52.946Z,0.00
2023-05-19T00:37:52.973Z,0.00
2023-05-19T00:38:52.948Z,0.00
2023-05-19T00:39:52.934Z,0.00
2023-05-19T00:40:52.886Z,0.00
2023-05-19T00:41:52.904Z,0.00
2023-05-19T00:42:52.876Z,0.00
2023-05-19T00:43:52.882Z,0.00
2023-05-19T00:44:52.858Z,0.00
2023-05-19T00:45:52.868Z,0.00
2023-05-19T00:46:52.849Z,0.00
2023-05-19T00:47:52.899Z,0.00
2023-05-19T00:48:52.804Z,0.00
2023-05-19T00:49:52.805Z,0.00
2023-05-19T00:50:52.774Z,0.00
2023-05-19T00:51:52.783Z,0.00
2023-05-19T00:52:52.758Z,0.00
2023-05-19T00:53:52.757Z,0.00
2023-05-19T00:54:52.724Z,0.00
2023-05-19T00:55:52.732Z,0.00
2023-05-19T00:56:52.676Z,0.00
2023-05-19T00:57:52.717Z,0.00
2023-05-19T00:58:52.684Z,0.00
2023-05-19T00:59:52.687Z,0.00
2023-05-19T01:00:52.664Z,0.00
2023-05-19T01:01:52.654Z,0.00
2023-05-19T01:02:52.741Z,0.00
2023-05-19T01:03:52.751Z,0.00
2023-05-19T01:04:52.584Z,0.00
2023-05-19T01:05:52.581Z,0.00
2023-05-19T01:06:52.546Z,0.00
2023-05-19T01:07:52.608Z,0.00
2023-05-19T01:08:52.555Z,0.00
2023-05-19T01:09:52.557Z,0.00
2023-05-19T01:10:52.508Z,0.00
2023-05-19T01:11:52.503Z,0.00
2023-05-19T01:12:52.473Z,0.00
2023-05-19T01:13:52.506Z,0.00
2023-05-19T01:14:52.480Z,0.00
2023-05-19T01:15:52.491Z,0.00
2023-05-19T01:16:52.567Z,0.00
2023-05-19T01:17:52.458Z,0.00
2023-05-19T01:18:52.420Z,0.00
2023-05-19T01:19:52.400Z,0.00
2023-05-19T01:20:52.396Z,0.00
2023-05-19T01:21:52.393Z,0.00
2023-05-19T01:22:52.340Z,0.00
2023-05-19T01:23:52.368Z,0.00
2023-05-19T01:24:52.323Z,0.00
2023-05-19T01:25:52.313Z,0.00
2023-05-19T01:26:52.283Z,0.00
2023-05-19T01:27:52.309Z,0.00
2023-05-19T01:28:52.255Z,0.00
2023-05-19T01:29:52.273Z,0.00
2023-05-19T01:30:52.241Z,0.00
2023-05-19T01:31:52.275Z,0.00
2023-05-19T01:32:52.271Z,0.00
2023-05-19T01:33:52.214Z,0.00
2023-05-19T01:34:52.186Z,0.00
2023-05-19T01:35:52.198Z,0.00
2023-05-19T01:36:52.183Z,0.00
2023-05-19T01:37:52.195Z,0.00
2023-05-19T01:38:52.144Z,0.00
2023-05-19T01:39:52.156Z,0.00
2023-05-19T01:40:52.122Z,0.00
2023-05-19T01:41:52.116Z,0.00
2023-05-19T01:42:52.079Z,0.00
2023-05-19T01:43:52.100Z,0.00
2023-05-19T01:44:52.067Z,0.00
2023-05-19T01:45:52.144Z,0.00
2023-05-19T01:46:52.031Z,0.00
2023-05-19T01:47:52.061Z,0.00
2023-05-19T01:48:52.004Z,0.00
2023-05-19T01:49:52.027Z,0.00
2023-05-19T01:50:51.982Z,0.00
2023-05-19T01:51:51.986Z,0.00
2023-05-19T01:52:51.952Z,0.00
2023-05-19T01:53:51.976Z,0.00
2023-05-19T01:54:51.938Z,0.00
2023-05-19T01:55:51.947Z,0.00
2023-05-19T01:56:51.904Z,0.00
2023-05-19T01:57:51.907Z,0.00
2023-05-19T01:58:51.911Z,0.00
2023-05-19T01:59:51.877Z,0.00
2023-05-19T02:00:51.868Z,0.00
2023-05-19T02:01:51.855Z,0.00
2023-05-19T02:02:51.937Z,0.00
2023-05-19T02:03:51.890Z,0.00
2023-05-19T02:04:51.818Z,0.00
2023-05-19T02:05:51.815Z,0.00
2023-05-19T02:06:51.772Z,0.00
2023-05-19T02:07:51.798Z,0.00
2023-05-19T02:08:51.766Z,0.00
2023-05-19T02:09:51.748Z,0.00
2023-05-19T02:10:51.714Z,0.00
2023-05-19T02:11:51.723Z,0.00
2023-05-19T02:12:51.707Z,0.00
2023-05-19T02:13:51.711Z,0.00
2023-05-19T02:14:51.677Z,0.00
2023-05-19T02:15:51.682Z,0.00
2023-05-19T02:16:51.627Z,0.00
2023-05-19T02:17:51.779Z,0.00
2023-05-19T02:18:51.629Z,0.00
2023-05-19T02:19:51.638Z,0.00
2023-05-19T02:20:51.592Z,0.00
2023-05-19T02:21:51.590Z,0.00
2023-05-19T02:22:51.573Z,0.00
2023-05-19T02:23:51.560Z,0.00
2023-05-19T02:24:51.676Z,0.00
2023-05-19T02:25:51.526Z,0.00
2023-05-19T02:26:51.497Z,0.00
2023-05-19T02:27:51.522Z,0.00
2023-05-19T02:28:51.483Z,0.00
2023-05-19T02:29:51.505Z,0.00
2023-05-19T02:30:51.478Z,0.00
2023-05-19T02:31:51.502Z,0.00
2023-05-19T02:32:51.459Z,0.00
2023-05-19T02:33:51.436Z,0.00
2023-05-19T02:34:51.387Z,0.00
2023-05-19T02:35:51.437Z,0.00
2023-05-19T02:36:51.364Z,0.00
2023-05-19T02:37:51.380Z,0.00
2023-05-19T02:38:51.349Z,0.00
2023-05-19T02:39:51.383Z,0.00
2023-05-19T02:40:51.341Z,0.00
2023-05-19T02:41:51.325Z,0.00
2023-05-19T02:42:51.292Z,0.00
2023-05-19T02:43:51.297Z,0.00
2023-05-19T02:44:51.275Z,0.00
2023-05-19T02:45:51.298Z,0.00
2023-05-19T02:46:51.479Z,0.00
2023-05-19T02:47:51.270Z,0.00
2023-05-19T02:48:51.239Z,0.00
2023-05-19T02:49:51.238Z,0.00
2023-05-19T02:50:51.199Z,0.00
2023-05-19T02:51:51.201Z,0.00
2023-05-19T02:52:51.173Z,0.00
2023-05-19T02:53:51.180Z,0.00
2023-05-19T02:54:51.144Z,0.00
2023-05-19T02:55:51.142Z,0.00
2023-05-19T02:56:51.113Z,0.00
2023-05-19T02:57:51.166Z,0.00
2023-05-19T02:58:51.081Z,0.00
2023-05-19T02:59:51.139Z,0.00
2023-05-19T03:00:51.044Z,0.00
2023-05-19T03:01:51.121Z,0.00
2023-05-19T03:02:51.146Z,0.00
2023-05-19T03:03:51.145Z,0.00
2023-05-19T03:04:51.034Z,0.00
2023-05-19T03:05:51.017Z,0.00
2023-05-19T03:06:50.985Z,0.00
2023-05-19T03:07:51.031Z,0.00
2023-05-19T03:08:50.965Z,0.00
2023-05-19T03:09:50.971Z,0.00
2023-05-19T03:10:50.925Z,0.00
2023-05-19T03:11:50.929Z,0.00
2023-05-19T03:12:50.924Z,0.00
2023-05-19T03:13:50.934Z,0.00
2023-05-19T03:14:50.877Z,0.00
2023-05-19T03:15:50.913Z,0.00
2023-05-19T03:16:50.997Z,0.00
2023-05-19T03:17:51.017Z,0.00
2023-05-19T03:18:50.852Z,0.00
2023-05-19T03:19:50.838Z,0.00
2023-05-19T03:20:50.801Z,0.00
2023-05-19T03:21:50.777Z,0.00
2023-05-19T03:22:50.797Z,0.00
2023-05-19T03:23:50.754Z,0.00
2023-05-19T03:24:50.785Z,0.00
2023-05-19T03:25:50.743Z,0.00
2023-05-19T03:26:50.764Z,0.00
2023-05-19T03:27:50.740Z,0.00
2023-05-19T03:28:50.731Z,0.00
2023-05-19T03:29:50.704Z,0.00
2023-05-19T03:30:50.713Z,0.00
2023-05-19T03:31:50.670Z,4.00
2023-05-19T03:32:50.729Z,0.00
2023-05-19T03:33:50.617Z,0.00
2023-05-19T03:34:50.658Z,0.00
2023-05-19T03:35:50.606Z,0.00
2023-05-19T03:36:50.611Z,0.00
2023-05-19T03:37:50.615Z,0.00
2023-05-19T03:38:50.613Z,0.00
2023-05-19T03:39:50.570Z,0.00
2023-05-19T03:40:50.563Z,0.00
2023-05-19T03:41:50.546Z,0.00
2023-05-19T03:42:50.547Z,4.00
2023-05-19T03:43:50.506Z,4.00
2023-05-19T03:44:50.507Z,4.00
2023-05-19T03:45:50.515Z,0.00
2023-05-19T03:46:50.468Z,4.00
2023-05-19T03:47:50.551Z,4.00
2023-05-19T03:48:50.449Z,4.00
2023-05-19T03:49:50.410Z,4.00
2023-05-19T03:50:50.432Z,4.00
2023-05-19T03:51:50.400Z,0.00
2023-05-19T03:52:50.430Z,4.00
2023-05-19T03:53:50.369Z,4.00
2023-05-19T03:54:50.379Z,4.00
2023-05-19T03:55:50.336Z,8.00
2023-05-19T03:56:50.356Z,4.00
2023-05-19T03:57:50.305Z,8.00
2023-05-19T03:58:50.359Z,8.00
2023-05-19T03:59:50.283Z,4.00
2023-05-19T04:00:50.305Z,8.00
2023-05-19T04:01:50.263Z,8.00
2023-05-19T04:02:50.329Z,8.00
2023-05-19T04:03:50.242Z,8.00
2023-05-19T04:04:50.318Z,8.00
2023-05-19T04:05:50.265Z,12.00
2023-05-19T04:06:50.237Z,8.00
2023-05-19T04:07:50.204Z,8.00
2023-05-19T04:08:50.194Z,12.00
2023-05-19T04:09:50.188Z,12.00
2023-05-19T04:10:50.166Z,12.00
2023-05-19T04:11:50.136Z,12.00
2023-05-19T04:12:50.153Z,12.00
2023-05-19T04:13:50.086Z,12.00
2023-05-19T04:14:50.165Z,12.00
2023-05-19T04:15:50.102Z,12.00
2023-05-19T04:16:50.105Z,12.00
2023-05-19T04:17:50.113Z,12.00
2023-05-19T04:18:50.124Z,12.00
2023-05-19T04:19:50.047Z,16.00
2023-05-19T04:20:50.046Z,12.00
2023-05-19T04:21:49.992Z,16.00
2023-05-19T04:22:50.044Z,12.00
2023-05-19T04:23:49.993Z,16.00
2023-05-19T04:24:50.022Z,16.00
2023-05-19T04:25:49.955Z,16.00
2023-05-19T04:26:49.965Z,16.00
2023-05-19T04:27:49.923Z,16.00
2023-05-19T04:28:49.966Z,16.00
2023-05-19T04:29:49.970Z,16.00
2023-05-19T04:30:49.945Z,20.00
2023-05-19T04:31:49.896Z,20.00
2023-05-19T04:32:49.929Z,16.00
2023-05-19T04:33:49.884Z,20.00
2023-05-19T04:34:49.852Z,20.00
2023-05-19T04:35:49.812Z,20.00
2023-05-19T04:36:52.473Z,20.00
2023-05-19T04:37:49.844Z,24.00
2023-05-19T04:38:49.828Z,24.00
2023-05-19T04:39:49.755Z,20.00
2023-05-19T04:40:49.815Z,20.00
2023-05-19T04:41:49.730Z,24.00
2023-05-19T04:42:49.765Z,24.00
2023-05-19T04:43:49.722Z,24.00
2023-05-19T04:44:49.762Z,24.00
2023-05-19T04:45:49.688Z,24.00
2023-05-19T04:46:49.713Z,24.00
2023-05-19T04:47:49.707Z,24.00
2023-05-19T04:48:49.701Z,24.00
2023-05-19T04:49:49.646Z,24.00
2023-05-19T04:50:49.637Z,32.00
2023-05-19T04:51:49.617Z,28.00
2023-05-19T04:52:49.631Z,28.00
2023-05-19T04:53:49.610Z,32.00
2023-05-19T04:54:49.589Z,32.00
2023-05-19T04:55:49.556Z,32.00
2023-05-19T04:56:49.576Z,32.00
2023-05-19T04:57:49.547Z,36.00
2023-05-19T04:58:49.536Z,36.00
2023-05-19T04:59:49.499Z,36.00
2023-05-19T05:00:49.511Z,36.00
2023-05-19T05:01:49.533Z,36.00
2023-05-19T05:02:49.599Z,40.00
2023-05-19T05:03:49.517Z,40.00
2023-05-19T05:04:49.462Z,40.00
2023-05-19T05:05:49.422Z,40.00
2023-05-19T05:06:49.469Z,40.00
2023-05-19T05:07:49.424Z,44.00
2023-05-19T05:08:49.412Z,44.00
2023-05-19T05:09:49.391Z,44.00
2023-05-19T05:10:49.377Z,48.00
2023-05-19T05:11:49.343Z,48.00
2023-05-19T05:12:49.368Z,52.00
2023-05-19T05:13:49.379Z,52.00
2023-05-19T05:14:49.316Z,56.00
2023-05-19T05:15:49.299Z,56.00
2023-05-19T05:16:49.333Z,64.00
2023-05-19T05:17:49.300Z,64.00
2023-05-19T05:18:49.348Z,68.00
2023-05-19T05:19:49.240Z,72.00
2023-05-19T05:20:49.254Z,80.00
2023-05-19T05:21:49.209Z,80.00
2023-05-19T05:22:49.240Z,84.00
2023-05-19T05:23:49.213Z,88.00
2023-05-19T05:24:49.192Z,84.00
2023-05-19T05:25:49.166Z,88.00
2023-05-19T05:26:49.155Z,88.00
2023-05-19T05:27:49.123Z,88.00
2023-05-19T05:28:49.162Z,92.00
2023-05-19T05:29:50.611Z,88.00
2023-05-19T05:30:49.142Z,92.00
2023-05-19T05:31:49.100Z,88.00
2023-05-19T05:32:49.191Z,88.00
2023-05-19T05:33:49.099Z,88.00
2023-05-19T05:34:49.061Z,88.00
2023-05-19T05:35:49.068Z,84.00
2023-05-19T05:36:49.057Z,84.00
2023-05-19T05:37:49.015Z,84.00
2023-05-19T05:38:49.009Z,84.00
2023-05-19T05:39:48.981Z,88.00
2023-05-19T05:40:49.007Z,88.00
2023-05-19T05:41:48.977Z,88.00
2023-05-19T05:42:48.963Z,88.00
2023-05-19T05:43:48.928Z,92.00
2023-05-19T05:44:48.936Z,92.00
2023-05-19T05:45:48.921Z,92.00
2023-05-19T05:46:48.958Z,92.00
2023-05-19T05:47:48.958Z,92.00
2023-05-19T05:48:48.889Z,92.00
2023-05-19T05:49:48.846Z,92.00
2023-05-19T05:50:49.178Z,88.00
2023-05-19T05:52:01.846Z,88.00
2023-05-19T05:52:48.832Z,88.00
2023-05-19T05:53:48.799Z,92.00
2023-05-19T05:54:48.809Z,92.00
2023-05-19T05:55:48.753Z,92.00
2023-05-19T05:56:48.805Z,100.00
2023-05-19T05:57:48.765Z,100.00
2023-05-19T05:58:48.772Z,100.00
2023-05-19T05:59:48.712Z,100.00
2023-05-19T06:00:48.712Z,104.00
2023-05-19T06:01:48.708Z,104.00
2023-05-19T06:02:48.910Z,104.00
2023-05-19T06:03:48.730Z,104.00
2023-05-19T06:04:48.671Z,108.00
2023-05-19T06:05:48.717Z,108.00
2023-05-19T06:06:48.654Z,108.00
2023-05-19T06:07:48.638Z,112.00
2023-05-19T06:08:48.766Z,112.00
2023-05-19T06:09:48.605Z,112.00
2023-05-19T06:10:48.608Z,112.00
2023-05-19T06:11:48.563Z,112.00
2023-05-19T06:12:48.828Z,112.00
2023-05-19T06:13:48.608Z,108.00
2023-05-19T06:14:48.569Z,108.00
2023-05-19T06:15:48.548Z,108.00
2023-05-19T06:16:48.512Z,112.00
2023-05-19T06:17:48.536Z,112.00
2023-05-19T06:18:48.493Z,112.00
2023-05-19T06:19:48.492Z,112.00
2023-05-19T06:20:48.466Z,112.00
2023-05-19T06:21:48.438Z,112.00
2023-05-19T06:22:48.445Z,112.00
2023-05-19T06:23:48.422Z,112.00
2023-05-19T06:24:48.419Z,116.00
2023-05-19T06:25:48.373Z,112.00
2023-05-19T06:26:48.419Z,116.00
2023-05-19T06:27:48.358Z,116.00
2023-05-19T06:28:48.363Z,120.00
2023-05-19T06:29:48.317Z,120.00
2023-05-19T06:30:48.334Z,116.00
2023-05-19T06:31:48.355Z,120.00
2023-05-19T06:32:48.338Z,120.00
2023-05-19T06:33:48.288Z,120.00
2023-05-19T06:34:48.282Z,124.00
2023-05-19T06:35:48.661Z,124.00
2023-05-19T06:36:48.262Z,124.00
2023-05-19T06:37:48.250Z,128.00
2023-05-19T06:38:48.234Z,128.00
2023-05-19T06:39:48.192Z,132.00
2023-05-19T06:40:48.215Z,136.00
2023-05-19T06:41:48.168Z,140.00
2023-05-19T06:42:48.206Z,140.00
2023-05-19T06:43:48.923Z,144.00
2023-05-19T06:44:48.142Z,148.00
2023-05-19T06:45:48.148Z,152.00
2023-05-19T06:46:48.180Z,156.00
2023-05-19T06:47:48.141Z,160.00
2023-05-19T06:48:48.107Z,164.00
2023-05-19T06:49:48.059Z,164.00
2023-05-19T06:50:48.082Z,172.00
2023-05-19T06:51:48.043Z,176.00
2023-05-19T06:52:48.156Z,180.00
2023-05-19T06:53:48.031Z,184.00
2023-05-19T06:54:48.012Z,184.00
2023-05-19T06:55:58.068Z,188.00
2023-05-19T06:56:48.018Z,192.00
2023-05-19T06:57:47.954Z,196.00
2023-05-19T06:58:47.993Z,200.00
2023-05-19T06:59:47.950Z,204.00
2023-05-19T07:00:47.957Z,208.00
2023-05-19T07:01:48.031Z,208.00
2023-05-19T07:02:47.957Z,220.00
2023-05-19T07:03:47.950Z,220.00
2023-05-19T07:04:47.930Z,228.00
2023-05-19T07:05:47.863Z,232.00
2023-05-19T07:06:47.864Z,244.00
2023-05-19T07:07:47.846Z,252.00
2023-05-19T07:08:47.823Z,260.00
2023-05-19T07:09:47.794Z,268.00
2023-05-19T07:10:47.842Z,276.00
2023-05-19T07:11:47.784Z,288.00
2023-05-19T07:12:47.788Z,292.00
2023-05-19T07:13:47.759Z,304.00
2023-05-19T07:14:47.750Z,316.00
2023-05-19T07:15:47.724Z,328.00
2023-05-19T07:16:47.876Z,344.00
2023-05-19T07:17:47.755Z,356.00
2023-05-19T07:18:47.723Z,372.00
2023-05-19T07:19:49.943Z,384.00
2023-05-19T07:20:47.754Z,400.00
2023-05-19T07:21:47.669Z,412.00
2023-05-19T07:22:47.650Z,428.00
2023-05-19T07:23:47.622Z,436.00
2023-05-19T07:24:47.619Z,460.00
2023-05-19T07:25:47.594Z,472.00
2023-05-19T07:26:47.616Z,468.00
2023-05-19T07:27:47.581Z,500.00
2023-05-19T07:28:47.782Z,504.00
2023-05-19T07:29:47.542Z,520.00
2023-05-19T07:30:47.572Z,540.00
2023-05-19T07:31:47.554Z,596.00
2023-05-19T07:32:47.590Z,644.00
2023-05-19T07:33:47.506Z,684.00
2023-05-19T07:34:47.488Z,708.00
2023-05-19T07:35:47.454Z,720.00
2023-05-19T07:36:47.459Z,716.00
2023-05-19T07:37:47.466Z,712.00
2023-05-19T07:38:47.508Z,724.00
2023-05-19T07:39:47.415Z,728.00
2023-05-19T07:40:47.429Z,740.00
2023-05-19T07:41:47.429Z,756.00
2023-05-19T07:42:47.353Z,772.00
2023-05-19T07:43:47.393Z,772.00
2023-05-19T07:44:47.333Z,776.00
2023-05-19T07:45:47.356Z,780.00
2023-05-19T07:46:47.348Z,780.00
2023-05-19T07:47:47.355Z,780.00
2023-05-19T07:48:47.333Z,792.00
2023-05-19T07:49:48.600Z,784.00
2023-05-19T07:50:47.281Z,780.00
2023-05-19T07:51:47.299Z,792.00
2023-05-19T07:52:47.232Z,784.00
2023-05-19T07:53:47.254Z,796.00
2023-05-19T07:54:47.194Z,808.00
2023-05-19T07:55:47.240Z,788.00
2023-05-19T07:56:47.190Z,792.00
2023-05-19T07:57:47.222Z,812.00
2023-05-19T07:58:47.172Z,804.00
2023-05-19T07:59:47.161Z,788.00
2023-05-19T08:00:47.130Z,776.00
2023-05-19T08:01:47.127Z,776.00
2023-05-19T08:02:47.146Z,772.00
2023-05-19T08:03:47.274Z,768.00
2023-05-19T08:04:47.132Z,768.00
2023-05-19T08:05:47.102Z,772.00
2023-05-19T08:06:47.045Z,764.00
2023-05-19T08:07:47.048Z,728.00
2023-05-19T08:08:47.009Z,716.00
2023-05-19T08:09:47.026Z,700.00
2023-05-19T08:10:47.005Z,688.00
2023-05-19T08:11:46.987Z,724.00
2023-05-19T08:12:47.001Z,724.00
2023-05-19T08:13:46.953Z,724.00
2023-05-19T08:14:46.973Z,720.00
2023-05-19T08:15:47.046Z,716.00
2023-05-19T08:16:46.936Z,720.00
2023-05-19T08:17:46.967Z,708.00
2023-05-19T08:18:46.930Z,712.00
2023-05-19T08:19:46.903Z,712.00
2023-05-19T08:20:46.894Z,716.00
2023-05-19T08:21:47.244Z,716.00
2023-05-19T08:22:46.828Z,716.00
2023-05-19T08:23:46.871Z,720.00
2023-05-19T08:24:46.802Z,724.00
2023-05-19T08:25:46.859Z,736.00
2023-05-19T08:26:46.786Z,740.00
2023-05-19T08:27:46.787Z,748.00
2023-05-19T08:28:46.761Z,744.00
2023-05-19T08:29:46.788Z,736.00
2023-05-19T08:30:46.721Z,748.00
2023-05-19T08:31:46.781Z,756.00
2023-05-19T08:32:46.763Z,768.00
2023-05-19T08:33:46.716Z,788.00
2023-05-19T08:34:46.668Z,792.00
2023-05-19T08:35:46.722Z,800.00
2023-05-19T08:36:46.644Z,796.00
2023-05-19T08:37:46.723Z,804.00
2023-05-19T08:38:46.624Z,788.00
2023-05-19T08:39:48.515Z,800.00
2023-05-19T08:40:46.592Z,812.00
2023-05-19T08:41:46.624Z,804.00
2023-05-19T08:42:46.573Z,808.00
2023-05-19T08:43:46.587Z,812.00
2023-05-19T08:44:46.568Z,796.00
2023-05-19T08:45:46.554Z,816.00
2023-05-19T08:46:46.560Z,720.00
2023-05-19T08:47:46.541Z,776.00
2023-05-19T08:48:46.507Z,776.00
2023-05-19T08:49:46.532Z,776.00
2023-05-19T08:50:46.492Z,744.00
2023-05-19T08:51:46.438Z,712.00
2023-05-19T08:52:49.530Z,692.00
2023-05-19T08:53:46.413Z,660.00
2023-05-19T08:54:46.459Z,660.00
2023-05-19T08:55:46.404Z,644.00
2023-05-19T08:56:46.427Z,668.00
2023-05-19T08:57:46.394Z,680.00
2023-05-19T08:58:46.389Z,668.00
2023-05-19T08:59:46.396Z,624.00
2023-05-19T09:00:46.363Z,584.00
2023-05-19T09:01:46.334Z,560.00
2023-05-19T09:02:55.176Z,624.00
2023-05-19T09:03:46.434Z,492.00
2023-05-19T09:04:46.394Z,472.00
2023-05-19T09:05:46.336Z,512.00
2023-05-19T09:06:46.284Z,516.00
2023-05-19T09:07:46.253Z,504.00
2023-05-19T09:08:46.242Z,460.00
2023-05-19T09:09:46.198Z,472.00
2023-05-19T09:10:46.250Z,404.00
2023-05-19T09:11:46.189Z,428.00
2023-05-19T09:12:46.202Z,360.00
2023-05-19T09:13:46.184Z,320.00
2023-05-19T09:14:46.188Z,408.00
2023-05-19T09:15:46.369Z,464.00
2023-05-19T09:16:46.197Z,412.00
2023-05-19T09:17:46.159Z,392.00
2023-05-19T09:18:46.128Z,420.00
2023-05-19T09:19:46.100Z,544.00
2023-05-19T09:20:46.093Z,564.00
2023-05-19T09:21:46.046Z,628.00
2023-05-19T09:22:46.091Z,628.00
2023-05-19T09:23:46.325Z,628.00
2023-05-19T09:24:46.456Z,660.00
2023-05-19T09:25:46.004Z,696.00
2023-05-19T09:26:46.026Z,680.00
2023-05-19T09:27:45.971Z,728.00
2023-05-19T09:28:46.005Z,720.00
2023-05-19T09:29:45.963Z,672.00
2023-05-19T09:30:45.957Z,652.00
2023-05-19T09:31:45.990Z,688.00
2023-05-19T09:32:47.263Z,660.00
2023-05-19T09:33:46.300Z,604.00
2023-05-19T09:34:45.905Z,492.00
2023-05-19T09:35:45.896Z,632.00
2023-05-19T09:36:45.876Z,564.00
2023-05-19T09:37:45.848Z,720.00
2023-05-19T09:38:45.860Z,732.00
2023-05-19T09:39:45.837Z,740.00
2023-05-19T09:40:45.852Z,732.00
2023-05-19T09:41:46.222Z,628.00
2023-05-19T09:42:45.810Z,384.00
2023-05-19T09:43:45.776Z,352.00
2023-05-19T09:44:45.800Z,356.00
2023-05-19T09:45:45.752Z,328.00
2023-05-19T09:46:45.791Z,292.00
2023-05-19T09:47:45.720Z,320.00
2023-05-19T09:48:45.734Z,348.00
2023-05-19T09:49:45.695Z,372.00
2023-05-19T09:50:45.930Z,392.00
2023-05-19T09:51:45.658Z,436.00
2023-05-19T09:52:45.660Z,416.00
2023-05-19T09:53:45.606Z,400.00
2023-05-19T09:54:45.643Z,448.00
2023-05-19T09:55:45.639Z,456.00
2023-05-19T09:56:45.616Z,364.00
2023-05-19T09:57:45.570Z,396.00
2023-05-19T09:58:45.606Z,424.00
2023-05-19T09:59:45.564Z,352.00
2023-05-19T10:00:45.623Z,320.00
2023-05-19T10:01:45.548Z,304.00
2023-05-19T10:02:45.595Z,284.00
2023-05-19T10:03:45.602Z,280.00
2023-05-19T10:04:45.536Z,296.00
2023-05-19T10:05:45.507Z,312.00
2023-05-19T10:06:45.496Z,352.00
2023-05-19T10:07:45.442Z,352.00
2023-05-19T10:08:45.490Z,356.00
2023-05-19T10:09:45.471Z,376.00
2023-05-19T10:10:45.454Z,372.00
2023-05-19T10:11:45.381Z,384.00
2023-05-19T10:12:45.403Z,408.00
2023-05-19T10:13:45.353Z,412.00
2023-05-19T10:14:45.370Z,420.00
2023-05-19T10:15:57.288Z,412.00
2023-05-19T10:16:45.435Z,384.00
2023-05-19T10:17:45.333Z,380.00
2023-05-19T10:18:45.320Z,396.00
2023-05-19T10:19:45.293Z,416.00
2023-05-19T10:20:45.306Z,452.00
2023-05-19T10:21:45.310Z,472.00
2023-05-19T10:22:45.273Z,476.00
2023-05-19T10:23:45.240Z,488.00
2023-05-19T10:24:45.208Z,472.00
2023-05-19T10:25:45.244Z,484.00
2023-05-19T10:26:47.041Z,472.00
2023-05-19T10:27:45.231Z,456.00
2023-05-19T10:28:45.193Z,444.00
2023-05-19T10:29:45.181Z,452.00
2023-05-19T10:30:45.153Z,428.00
2023-05-19T10:31:45.179Z,404.00
2023-05-19T10:32:45.133Z,352.00
2023-05-19T10:33:45.133Z,324.00
2023-05-19T10:34:45.072Z,300.00
2023-05-19T10:35:47.334Z,280.00
2023-05-19T10:36:45.063Z,272.00
2023-05-19T10:37:45.083Z,256.00
2023-05-19T10:38:45.058Z,248.00
2023-05-19T10:39:45.033Z,252.00
2023-05-19T10:40:45.009Z,264.00
2023-05-19T10:41:45.172Z,268.00
2023-05-19T10:42:44.981Z,296.00
2023-05-19T10:43:44.993Z,324.00
2023-05-19T10:44:45.042Z,340.00
2023-05-19T10:45:44.962Z,348.00
2023-05-19T10:46:44.950Z,356.00
2023-05-19T10:47:44.952Z,388.00
2023-05-19T10:48:44.889Z,356.00
2023-05-19T10:49:44.950Z,360.00
2023-05-19T10:50:44.865Z,336.00
2023-05-19T10:51:44.923Z,316.00
2023-05-19T10:52:44.871Z,288.00
2023-05-19T10:53:44.865Z,236.00
2023-05-19T10:54:44.824Z,212.00
2023-05-19T10:55:44.855Z,208.00
2023-05-19T10:56:44.776Z,220.00
2023-05-19T10:57:44.796Z,188.00
2023-05-19T10:58:44.772Z,164.00
2023-05-19T10:59:44.779Z,152.00
2023-05-19T11:00:44.764Z,152.00
2023-05-19T11:01:44.807Z,148.00
2023-05-19T11:02:44.780Z,164.00
2023-05-19T11:03:44.775Z,152.00
2023-05-19T11:04:44.693Z,140.00
2023-05-19T11:05:44.732Z,136.00
2023-05-19T11:06:44.656Z,132.00
2023-05-19T11:07:44.730Z,132.00
2023-05-19T11:08:44.627Z,128.00
2023-05-19T11:09:44.649Z,132.00
2023-05-19T11:10:44.776Z,132.00
2023-05-19T11:11:44.656Z,132.00
2023-05-19T11:12:44.600Z,152.00
2023-05-19T11:13:44.592Z,152.00
2023-05-19T11:14:44.553Z,160.00
2023-05-19T11:15:44.583Z,172.00
2023-05-19T11:16:44.690Z,172.00
2023-05-19T11:17:44.550Z,168.00
2023-05-19T11:18:44.558Z,172.00
2023-05-19T11:19:44.707Z,164.00
2023-05-19T11:20:44.501Z,156.00
2023-05-19T11:21:44.474Z,152.00
2023-05-19T11:22:44.446Z,152.00
2023-05-19T11:23:44.509Z,156.00
2023-05-19T11:24:44.448Z,164.00
2023-05-19T11:25:44.447Z,180.00
2023-05-19T11:26:44.430Z,216.00
2023-05-19T11:27:44.430Z,260.00
2023-05-19T11:28:44.449Z,276.00
2023-05-19T11:29:44.417Z,280.00
2023-05-19T11:30:44.331Z,264.00
2023-05-19T11:31:44.385Z,252.00
2023-05-19T11:32:44.432Z,248.00
2023-05-19T11:33:44.350Z,248.00
2023-05-19T11:34:44.298Z,272.00
2023-05-19T11:35:44.297Z,256.00
2023-05-19T11:36:44.255Z,236.00
2023-05-19T11:37:44.311Z,228.00
2023-05-19T11:38:44.255Z,240.00
2023-05-19T11:39:44.247Z,248.00
2023-05-19T11:40:44.203Z,228.00
2023-05-19T11:41:44.223Z,220.00
2023-05-19T11:42:44.167Z,220.00
2023-05-19T11:43:44.192Z,208.00
2023-05-19T11:44:44.151Z,204.00
2023-05-19T11:45:44.211Z,212.00
2023-05-19T11:46:44.177Z,216.00
2023-05-19T11:48:00.848Z,208.00
2023-05-19T11:48:44.113Z,224.00
2023-05-19T11:49:44.116Z,260.00
2023-05-19T11:50:44.243Z,292.00
2023-05-19T11:51:44.058Z,312.00
2023-05-19T11:52:44.090Z,320.00
2023-05-19T11:53:44.064Z,356.00
2023-05-19T11:54:44.064Z,340.00
2023-05-19T11:55:44.109Z,320.00
2023-05-19T11:56:44.029Z,328.00
2023-05-19T11:57:47.017Z,256.00
2023-05-19T11:58:43.998Z,236.00
2023-05-19T11:59:43.979Z,204.00
2023-05-19T12:00:43.976Z,192.00
2023-05-19T12:01:43.932Z,180.00
2023-05-19T12:02:43.974Z,168.00
2023-05-19T12:03:44.016Z,156.00
2023-05-19T12:04:43.986Z,156.00
2023-05-19T12:05:44.421Z,152.00
2023-05-19T12:06:43.972Z,136.00
2023-05-19T12:07:43.837Z,136.00
2023-05-19T12:08:43.842Z,144.00
2023-05-19T12:09:43.844Z,144.00
2023-05-19T12:10:43.832Z,152.00
2023-05-19T12:11:43.794Z,152.00
2023-05-19T12:12:43.834Z,140.00
2023-05-19T12:13:43.760Z,140.00
2023-05-19T12:14:43.806Z,140.00
2023-05-19T12:15:43.760Z,144.00
2023-05-19T12:16:43.809Z,144.00
2023-05-19T12:17:43.738Z,136.00
2023-05-19T12:18:43.733Z,132.00
2023-05-19T12:19:43.752Z,128.00
2023-05-19T12:20:43.721Z,132.00
2023-05-19T12:21:43.689Z,128.00
2023-05-19T12:22:43.688Z,112.00
2023-05-19T12:23:43.640Z,108.00
2023-05-19T12:24:43.700Z,104.00
2023-05-19T12:25:43.604Z,104.00
2023-05-19T12:26:43.648Z,104.00
2023-05-19T12:27:43.572Z,112.00
2023-05-19T12:28:43.597Z,120.00
2023-05-19T12:29:43.561Z,128.00
2023-05-19T12:30:43.604Z,140.00
2023-05-19T12:31:43.569Z,136.00
2023-05-19T12:32:43.618Z,132.00
2023-05-19T12:33:43.527Z,128.00
2023-05-19T12:34:43.515Z,120.00
2023-05-19T12:35:43.461Z,112.00
2023-05-19T12:36:43.486Z,112.00
2023-05-19T12:37:43.459Z,112.00
2023-05-19T12:38:43.524Z,112.00
2023-05-19T12:39:43.415Z,112.00
2023-05-19T12:40:43.439Z,112.00
2023-05-19T12:41:43.422Z,112.00
2023-05-19T12:42:43.403Z,112.00
2023-05-19T12:43:43.387Z,112.00
2023-05-19T12:44:43.374Z,116.00
2023-05-19T12:45:43.365Z,120.00
2023-05-19T12:46:43.355Z,112.00
2023-05-19T12:47:43.362Z,112.00